Santa Monica, CA

7:26 PM PDT on September 01, 2015 (GMT -0700)
Santa Monica Municipal | | Change Station
CLOSE
Current Station
Airport
Location: Santa Monica,
Elevation: 174 ft
Nearby Weather Stations

Elev 174 ft 34.02 °N, 118.45 °W | Updated 35 minutes ago

Partly Cloudy
Partly Cloudy
71 °F
Feels Like 71 °F
N
7
Wind Variable Wind from SW

Today
High -- | Low -- °F
--% Chance of Precip.
Yesterday
High -- | Low -- °F
Precip. -- in
6:27 AM 7:19 PM
Waning Gibbous, 84% visible
Pressure 29.90 in
Visibility 10.0 miles
Clouds Clear
Dew Point 63 °F
Humidity 75%
Rainfall 0.00 in
Snow Depth Not available.
UV 0 out of 12
Pollen 7.20 out of 12
Air Quality Not available.
Flu Activity Not available.
METAR KSMO 020151Z 23006KT 10SM CLR 22/17 A2990 RMK AO2 SLP123 T02170172
Pressure 29.90 in
Visibility 10.0 miles
Clouds Clear
Dew Point 63 °F
Humidity 75%
Rainfall 0.00 in
Snow Depth Not available.
UV 0 out of 12
Pollen 7.20 out of 12
Air Quality Not available.
Flu Activity Not available.
METAR KSMO 020151Z 23006KT 10SM CLR 22/17 A2990 RMK AO2 SLP123 T02170172

10-Day Weather Forecast

×

Almanac

Astronomy

Sep. 01, 2015 Rise Set
Actual Time
Civil Twilight
Nautical Twilight
Astronomical Twilight
Moon
Length of Visible Light
Length of Day
Tomorrow will be .
, % of the Moon is Illuminated

Today's Extremes

State Highs State Lows

Community

WunderPhotos

Upload Photos

1,851,679 photos uploaded!

WunderBlogs® & News

Nearby

Air Quality

  Air Quality AQ Index Pollutant
Not available.

Snow Depth

Station Depth Elevation

Earthquake Activity

City Distance Mag. Time & Date
Minimum magnitude displayed is 2.5.

Coastal Water Temperatures

Place Temperature

Stations

Nearby Weather Stations

Station Location Temp. Windchill Dew Point Humidity Wind Precip. Elev Updated Type